CCA1496 ZBAA-ZPLJ
Flight info
| Callsign | CCA1496 |
|---|---|
| Flight time | 3h 18m |
| Altitude | 36100 |
| Route | K0859S1100 PEGSO9Z PEGSO B215 GODON W43 SAVPA W696 MENED W276 ANRUG W279 ONEBA G212 BUPMI/K0856S1160 G212 LUVEN/K0859S1130 G212 BOPTU/K0856S1160 W162 MUBOP DCT DAL DAL21A |
| Aircraft | A319/M-SDE3FGHIRWY/LB1 |
Departure
| Time | 2026-05-07 06:14 |
|---|---|
| Airport | Beijing Capital International Airport (ZBAA) |
Arrival
| Time | 2026-05-07 09:32 |
|---|---|
| Airport | Lijiang Sanyi International Airport (ZPLJ) |
| Time | Latitude | Longitude | Altitude | Speed | Heading |
|---|---|---|---|---|---|
| 2026-05-07 05:15 | 40.05916 | 116.60719 | 124 ft | 0 kts | 63° |
| 2026-05-07 05:55 | 40.05911 | 116.60707 | 124 ft | 4 kts | 62° |
| 2026-05-07 05:55 | 40.05903 | 116.60682 | 120 ft | 4 kts | 75° |
| 2026-05-07 05:55 | 40.05898 | 116.60648 | 120 ft | 4 kts | 85° |
| 2026-05-07 05:55 | 40.05898 | 116.60613 | 122 ft | 4 kts | 100° |
| 2026-05-07 05:56 | 40.05907 | 116.60581 | 120 ft | 4 kts | 139° |
| 2026-05-07 05:56 | 40.05919 | 116.60572 | 118 ft | 1 kts | 173° |
| 2026-05-07 05:56 | 40.05921 | 116.60572 | 119 ft | 0 kts | 173° |
| 2026-05-07 05:58 | 40.05917 | 116.60573 | 122 ft | 3 kts | 173° |
| 2026-05-07 05:58 | 40.05874 | 116.60580 | 124 ft | 8 kts | 173° |
| 2026-05-07 05:59 | 40.05809 | 116.60590 | 120 ft | 11 kts | 173° |
| 2026-05-07 05:59 | 40.05725 | 116.60603 | 122 ft | 13 kts | 173° |
| 2026-05-07 05:59 | 40.05667 | 116.60533 | 123 ft | 14 kts | 265° |
| 2026-05-07 05:59 | 40.05654 | 116.60398 | 123 ft | 16 kts | 263° |
| 2026-05-07 06:00 | 40.05649 | 116.60338 | 124 ft | 0 kts | 263° |
| 2026-05-07 06:11 | 40.05648 | 116.60332 | 124 ft | 3 kts | 263° |
| 2026-05-07 06:11 | 40.05643 | 116.60278 | 121 ft | 9 kts | 263° |
| 2026-05-07 06:12 | 40.05634 | 116.60178 | 124 ft | 13 kts | 263° |
| 2026-05-07 06:12 | 40.05624 | 116.60054 | 122 ft | 15 kts | 268° |
| 2026-05-07 06:12 | 40.05672 | 116.59996 | 122 ft | 0 kts | 351° |
| 2026-05-07 06:12 | 40.05684 | 116.59994 | 120 ft | 3 kts | 351° |
| 2026-05-07 06:13 | 40.05716 | 116.59988 | 121 ft | 8 kts | 353° |
| 2026-05-07 06:13 | 40.05800 | 116.59975 | 122 ft | 40 kts | 353° |
| 2026-05-07 06:13 | 40.06357 | 116.59888 | 122 ft | 117 kts | 353° |
| 2026-05-07 06:13 | 40.07359 | 116.59731 | 140 ft | 169 kts | 354° |
| 2026-05-07 06:14 | 40.08523 | 116.59548 | 776 ft | 167 kts | 354° |
| 2026-05-07 06:14 | 40.09667 | 116.59373 | 1470 ft | 166 kts | 352° |
| 2026-05-07 06:14 | 40.10830 | 116.59182 | 2127 ft | 171 kts | 352° |
| 2026-05-07 06:14 | 40.12006 | 116.58985 | 2859 ft | 169 kts | 352° |
| 2026-05-07 06:15 | 40.13181 | 116.58810 | 3552 ft | 170 kts | 352° |
| 2026-05-07 06:15 | 40.14359 | 116.58615 | 4191 ft | 171 kts | 352° |
| 2026-05-07 06:15 | 40.15553 | 116.58437 | 4818 ft | 174 kts | 353° |
| 2026-05-07 06:15 | 40.16757 | 116.58257 | 5474 ft | 175 kts | 352° |
| 2026-05-07 06:16 | 40.18003 | 116.58061 | 5920 ft | 190 kts | 352° |
| 2026-05-07 06:16 | 40.19392 | 116.57837 | 6234 ft | 213 kts | 352° |
| 2026-05-07 06:16 | 40.20941 | 116.57587 | 6610 ft | 236 kts | 352° |
| 2026-05-07 06:16 | 40.22653 | 116.57313 | 7056 ft | 257 kts | 352° |
| 2026-05-07 06:17 | 40.24420 | 116.56842 | 7804 ft | 262 kts | 340° |
| 2026-05-07 06:17 | 40.26042 | 116.55738 | 8667 ft | 265 kts | 324° |
| 2026-05-07 06:17 | 40.27453 | 116.54162 | 9541 ft | 268 kts | 319° |
| 2026-05-07 06:17 | 40.28846 | 116.52519 | 10334 ft | 274 kts | 316° |
| 2026-05-07 06:18 | 40.30062 | 116.50461 | 10588 ft | 299 kts | 302° |
| 2026-05-07 06:18 | 40.30964 | 116.47882 | 10858 ft | 325 kts | 291° |
| 2026-05-07 06:18 | 40.31518 | 116.44899 | 11048 ft | 351 kts | 281° |
| 2026-05-07 06:18 | 40.31637 | 116.41662 | 11401 ft | 367 kts | 272° |
| 2026-05-07 06:19 | 40.31629 | 116.38295 | 12011 ft | 372 kts | 273° |
| 2026-05-07 06:19 | 40.31634 | 116.34849 | 12692 ft | 375 kts | 274° |
| 2026-05-07 06:19 | 40.31642 | 116.31467 | 13396 ft | 377 kts | 274° |
| 2026-05-07 06:19 | 40.31650 | 116.28122 | 14024 ft | 380 kts | 274° |
| 2026-05-07 06:20 | 40.31654 | 116.24699 | 14611 ft | 382 kts | 274° |
| 2026-05-07 06:20 | 40.31656 | 116.21203 | 15160 ft | 385 kts | 274° |
| 2026-05-07 06:20 | 40.31653 | 116.17682 | 15760 ft | 388 kts | 274° |
| 2026-05-07 06:20 | 40.31645 | 116.14144 | 16318 ft | 390 kts | 274° |
| 2026-05-07 06:21 | 40.31636 | 116.10574 | 16859 ft | 393 kts | 274° |
| 2026-05-07 06:21 | 40.31628 | 116.06993 | 17424 ft | 394 kts | 274° |
| 2026-05-07 06:21 | 40.31479 | 116.03383 | 17945 ft | 402 kts | 265° |
| 2026-05-07 06:21 | 40.30711 | 115.99821 | 18457 ft | 413 kts | 252° |
| 2026-05-07 06:22 | 40.29275 | 115.96512 | 18910 ft | 424 kts | 238° |
| 2026-05-07 06:22 | 40.24647 | 115.91514 | 19794 ft | 445 kts | 212° |
| 2026-05-07 06:22 | 40.21891 | 115.89635 | 20180 ft | 448 kts | 212° |
| 2026-05-07 06:23 | 40.19119 | 115.87759 | 20609 ft | 450 kts | 212° |
| 2026-05-07 06:23 | 40.16335 | 115.85878 | 21017 ft | 451 kts | 212° |
| 2026-05-07 06:23 | 40.13544 | 115.83992 | 21429 ft | 452 kts | 212° |
| 2026-05-07 06:23 | 40.10745 | 115.82098 | 21814 ft | 453 kts | 212° |
| 2026-05-07 06:24 | 40.07940 | 115.80201 | 22177 ft | 455 kts | 213° |
| 2026-05-07 06:24 | 40.05123 | 115.78300 | 22511 ft | 456 kts | 213° |
| 2026-05-07 06:24 | 40.02294 | 115.76390 | 22851 ft | 458 kts | 213° |
| 2026-05-07 06:24 | 39.99455 | 115.74478 | 23207 ft | 460 kts | 213° |
| 2026-05-07 06:25 | 39.96604 | 115.72561 | 23542 ft | 463 kts | 213° |
| 2026-05-07 06:25 | 39.93734 | 115.70633 | 23853 ft | 465 kts | 213° |
| 2026-05-07 06:25 | 39.90852 | 115.68713 | 24156 ft | 468 kts | 211° |
| 2026-05-07 06:25 | 39.87793 | 115.67181 | 24442 ft | 476 kts | 201° |
| 2026-05-07 06:26 | 39.84521 | 115.66304 | 24725 ft | 485 kts | 192° |
| 2026-05-07 06:26 | 39.81124 | 115.66140 | 24975 ft | 493 kts | 181° |
| 2026-05-07 06:26 | 39.77704 | 115.66727 | 25220 ft | 500 kts | 171° |
| 2026-05-07 06:26 | 39.74341 | 115.67978 | 25469 ft | 505 kts | 166° |
| 2026-05-07 06:27 | 39.70980 | 115.69334 | 25711 ft | 507 kts | 167° |
| 2026-05-07 06:27 | 39.67607 | 115.70689 | 25983 ft | 507 kts | 168° |
| 2026-05-07 06:27 | 39.64236 | 115.72038 | 26257 ft | 507 kts | 168° |
| 2026-05-07 06:27 | 39.60865 | 115.73380 | 26584 ft | 506 kts | 168° |
| 2026-05-07 06:28 | 39.57499 | 115.74713 | 26963 ft | 505 kts | 168° |
| 2026-05-07 06:28 | 39.54139 | 115.76042 | 27356 ft | 504 kts | 169° |
| 2026-05-07 06:28 | 39.50835 | 115.77349 | 27725 ft | 503 kts | 169° |
| 2026-05-07 06:28 | 39.47490 | 115.78675 | 28114 ft | 502 kts | 169° |
| 2026-05-07 06:29 | 39.44156 | 115.80002 | 28511 ft | 501 kts | 170° |
| 2026-05-07 06:29 | 39.40827 | 115.81328 | 28924 ft | 500 kts | 170° |
| 2026-05-07 06:29 | 39.37502 | 115.82648 | 29338 ft | 499 kts | 171° |
| 2026-05-07 06:29 | 39.34184 | 115.83962 | 29767 ft | 498 kts | 171° |
| 2026-05-07 06:30 | 39.30874 | 115.85268 | 30189 ft | 497 kts | 172° |
| 2026-05-07 06:30 | 39.27560 | 115.86482 | 30526 ft | 489 kts | 178° |
| 2026-05-07 06:30 | 39.24243 | 115.86983 | 30843 ft | 473 kts | 189° |
| 2026-05-07 06:30 | 39.21023 | 115.86670 | 31157 ft | 456 kts | 201° |
| 2026-05-07 06:31 | 39.18022 | 115.85614 | 31481 ft | 440 kts | 212° |
| 2026-05-07 06:31 | 39.15310 | 115.83935 | 31807 ft | 426 kts | 221° |
| 2026-05-07 06:31 | 39.12938 | 115.81754 | 32132 ft | 413 kts | 230° |
| 2026-05-07 06:31 | 39.10941 | 115.79170 | 32464 ft | 402 kts | 239° |
| 2026-05-07 06:32 | 39.09268 | 115.76318 | 32795 ft | 398 kts | 242° |
| 2026-05-07 06:32 | 39.07629 | 115.73446 | 33125 ft | 398 kts | 242° |
| 2026-05-07 06:32 | 39.05985 | 115.70579 | 33459 ft | 398 kts | 242° |
| 2026-05-07 06:32 | 39.04337 | 115.67717 | 33795 ft | 398 kts | 242° |
| 2026-05-07 06:33 | 39.02713 | 115.64894 | 34120 ft | 398 kts | 242° |
| 2026-05-07 06:33 | 39.01072 | 115.62031 | 34413 ft | 397 kts | 242° |
| 2026-05-07 06:33 | 38.99436 | 115.59172 | 34709 ft | 397 kts | 242° |
| 2026-05-07 06:33 | 38.97802 | 115.56320 | 35002 ft | 396 kts | 242° |
| 2026-05-07 06:34 | 38.96165 | 115.53470 | 35282 ft | 396 kts | 242° |
| 2026-05-07 06:34 | 38.94601 | 115.50583 | 35543 ft | 390 kts | 247° |
| 2026-05-07 06:34 | 38.93405 | 115.47499 | 35799 ft | 384 kts | 252° |
| 2026-05-07 06:34 | 38.92318 | 115.44369 | 36045 ft | 384 kts | 252° |
| 2026-05-07 06:35 | 38.91227 | 115.41241 | 36204 ft | 384 kts | 252° |
| 2026-05-07 06:35 | 38.90129 | 115.38098 | 36246 ft | 387 kts | 252° |
| 2026-05-07 06:35 | 38.87910 | 115.31774 | 36248 ft | 389 kts | 252° |
| 2026-05-07 06:36 | 38.85686 | 115.25455 | 36245 ft | 389 kts | 252° |
| 2026-05-07 06:36 | 38.83459 | 115.19143 | 36249 ft | 388 kts | 252° |
| 2026-05-07 06:37 | 38.81230 | 115.12837 | 36251 ft | 388 kts | 252° |
| 2026-05-07 06:37 | 38.79000 | 115.06541 | 36245 ft | 388 kts | 252° |
| 2026-05-07 06:38 | 38.76765 | 115.00256 | 36242 ft | 387 kts | 252° |
| 2026-05-07 06:38 | 38.74535 | 114.93975 | 36238 ft | 387 kts | 252° |
| 2026-05-07 06:39 | 38.72305 | 114.87701 | 36236 ft | 387 kts | 253° |
| 2026-05-07 06:39 | 38.70076 | 114.81437 | 36234 ft | 386 kts | 253° |
| 2026-05-07 06:40 | 38.67845 | 114.75186 | 36235 ft | 386 kts | 253° |
| 2026-05-07 06:40 | 38.65611 | 114.68944 | 36234 ft | 385 kts | 253° |
| 2026-05-07 06:41 | 38.63377 | 114.62719 | 36237 ft | 385 kts | 253° |
| 2026-05-07 06:41 | 38.61137 | 114.56506 | 36240 ft | 384 kts | 253° |
| 2026-05-07 06:42 | 38.58899 | 114.50356 | 36251 ft | 384 kts | 253° |
| 2026-05-07 06:42 | 38.56656 | 114.44176 | 36261 ft | 383 kts | 253° |
| 2026-05-07 06:43 | 38.54422 | 114.38005 | 36264 ft | 382 kts | 253° |
| 2026-05-07 06:43 | 38.52192 | 114.31849 | 36269 ft | 382 kts | 253° |
| 2026-05-07 06:44 | 38.49954 | 114.25712 | 36268 ft | 381 kts | 253° |
| 2026-05-07 06:44 | 38.47714 | 114.19594 | 36268 ft | 380 kts | 253° |
| 2026-05-07 06:45 | 38.45487 | 114.13485 | 36270 ft | 379 kts | 253° |
| 2026-05-07 06:45 | 38.43260 | 114.07394 | 36274 ft | 378 kts | 253° |
| 2026-05-07 06:46 | 38.41034 | 114.01319 | 36274 ft | 378 kts | 254° |
| 2026-05-07 06:46 | 38.38814 | 113.95266 | 36286 ft | 376 kts | 253° |
| 2026-05-07 06:47 | 38.36595 | 113.89234 | 36290 ft | 375 kts | 253° |
| 2026-05-07 06:47 | 38.34373 | 113.83227 | 36287 ft | 374 kts | 253° |
| 2026-05-07 06:48 | 38.32140 | 113.77238 | 36277 ft | 374 kts | 253° |
| 2026-05-07 06:48 | 38.29886 | 113.71266 | 36270 ft | 374 kts | 253° |
| 2026-05-07 06:49 | 38.27626 | 113.65293 | 36273 ft | 374 kts | 253° |
| 2026-05-07 06:49 | 38.25366 | 113.59333 | 36269 ft | 374 kts | 253° |
| 2026-05-07 06:50 | 38.23108 | 113.53384 | 36273 ft | 373 kts | 253° |
| 2026-05-07 06:50 | 38.20858 | 113.47456 | 36276 ft | 372 kts | 253° |
| 2026-05-07 06:51 | 38.18604 | 113.41543 | 36280 ft | 371 kts | 253° |
| 2026-05-07 06:51 | 38.16353 | 113.35641 | 36286 ft | 371 kts | 253° |
| 2026-05-07 06:52 | 38.14140 | 113.29725 | 36286 ft | 370 kts | 254° |
| 2026-05-07 06:52 | 38.11950 | 113.23806 | 36285 ft | 370 kts | 254° |
| 2026-05-07 06:53 | 38.09775 | 113.17941 | 36289 ft | 369 kts | 254° |
| 2026-05-07 06:53 | 38.07568 | 113.12044 | 36288 ft | 370 kts | 254° |
| 2026-05-07 06:54 | 38.05349 | 113.06154 | 36294 ft | 370 kts | 253° |
| 2026-05-07 06:54 | 38.03131 | 113.00271 | 36295 ft | 369 kts | 254° |
| 2026-05-07 06:55 | 38.00920 | 112.94398 | 36298 ft | 369 kts | 254° |
| 2026-05-07 06:55 | 37.98709 | 112.88529 | 36299 ft | 368 kts | 254° |
| 2026-05-07 06:56 | 37.96497 | 112.82685 | 36297 ft | 367 kts | 254° |
| 2026-05-07 06:56 | 37.94289 | 112.76850 | 36291 ft | 367 kts | 253° |
| 2026-05-07 06:57 | 37.92077 | 112.71025 | 36283 ft | 367 kts | 253° |
| 2026-05-07 06:57 | 37.89859 | 112.65199 | 36273 ft | 367 kts | 253° |
| 2026-05-07 06:58 | 37.87642 | 112.59372 | 36268 ft | 368 kts | 253° |
| 2026-05-07 06:58 | 37.85305 | 112.53586 | 36260 ft | 370 kts | 251° |
| 2026-05-07 06:59 | 37.82842 | 112.47855 | 36275 ft | 371 kts | 251° |
| 2026-05-07 06:59 | 37.80374 | 112.42134 | 36273 ft | 370 kts | 251° |
| 2026-05-07 07:00 | 37.77929 | 112.36409 | 36266 ft | 370 kts | 251° |
| 2026-05-07 07:00 | 37.75596 | 112.30648 | 36267 ft | 367 kts | 253° |
| 2026-05-07 07:01 | 37.73420 | 112.24832 | 36268 ft | 366 kts | 253° |
| 2026-05-07 07:01 | 37.71615 | 112.20001 | 36258 ft | 366 kts | 253° |
| 2026-05-07 07:02 | 37.69403 | 112.14202 | 36254 ft | 367 kts | 253° |
| 2026-05-07 07:02 | 37.67172 | 112.08409 | 36250 ft | 367 kts | 253° |
| 2026-05-07 07:03 | 37.64937 | 112.02611 | 36252 ft | 367 kts | 253° |
| 2026-05-07 07:03 | 37.62700 | 111.96818 | 36248 ft | 367 kts | 253° |
| 2026-05-07 07:04 | 37.60465 | 111.91033 | 36255 ft | 367 kts | 253° |
| 2026-05-07 07:04 | 37.58232 | 111.85257 | 36259 ft | 366 kts | 253° |
| 2026-05-07 07:05 | 37.56002 | 111.79500 | 36258 ft | 365 kts | 253° |
| 2026-05-07 07:05 | 37.53763 | 111.73747 | 36257 ft | 366 kts | 253° |
| 2026-05-07 07:06 | 37.51471 | 111.68022 | 36251 ft | 371 kts | 248° |
| 2026-05-07 07:06 | 37.49912 | 111.65367 | 36249 ft | 384 kts | 239° |
| 2026-05-07 07:06 | 37.48012 | 111.62956 | 36247 ft | 389 kts | 237° |
| 2026-05-07 07:07 | 37.44150 | 111.58180 | 36246 ft | 390 kts | 236° |
| 2026-05-07 07:07 | 37.40276 | 111.53398 | 36246 ft | 390 kts | 236° |
| 2026-05-07 07:08 | 37.36407 | 111.48605 | 36251 ft | 390 kts | 237° |
| 2026-05-07 07:08 | 37.32543 | 111.43817 | 36248 ft | 390 kts | 236° |
| 2026-05-07 07:09 | 37.28678 | 111.39032 | 36252 ft | 390 kts | 236° |
| 2026-05-07 07:09 | 37.24800 | 111.34252 | 36260 ft | 391 kts | 236° |
| 2026-05-07 07:10 | 37.20922 | 111.29469 | 36250 ft | 391 kts | 236° |
| 2026-05-07 07:10 | 37.17040 | 111.24695 | 36242 ft | 392 kts | 236° |
| 2026-05-07 07:11 | 37.13146 | 111.19920 | 36243 ft | 392 kts | 236° |
| 2026-05-07 07:11 | 37.09246 | 111.15140 | 36244 ft | 392 kts | 235° |
| 2026-05-07 07:12 | 37.05337 | 111.10358 | 36241 ft | 393 kts | 235° |
| 2026-05-07 07:12 | 37.01442 | 111.05610 | 36241 ft | 394 kts | 235° |
| 2026-05-07 07:13 | 36.97495 | 111.00793 | 36245 ft | 394 kts | 235° |
| 2026-05-07 07:13 | 36.93570 | 110.95999 | 36247 ft | 394 kts | 234° |
| 2026-05-07 07:14 | 36.89665 | 110.91234 | 36248 ft | 395 kts | 234° |
| 2026-05-07 07:14 | 36.85762 | 110.86373 | 36255 ft | 388 kts | 239° |
| 2026-05-07 07:15 | 36.82744 | 110.80925 | 36256 ft | 381 kts | 245° |
| 2026-05-07 07:15 | 36.79821 | 110.75401 | 36240 ft | 382 kts | 244° |
| 2026-05-07 07:16 | 36.76880 | 110.69874 | 36241 ft | 383 kts | 244° |
| 2026-05-07 07:16 | 36.73952 | 110.64385 | 36241 ft | 383 kts | 244° |
| 2026-05-07 07:17 | 36.71001 | 110.58850 | 36240 ft | 384 kts | 244° |
| 2026-05-07 07:17 | 36.68041 | 110.53314 | 36237 ft | 384 kts | 244° |
| 2026-05-07 07:18 | 36.65079 | 110.47776 | 36240 ft | 384 kts | 244° |
| 2026-05-07 07:18 | 36.62115 | 110.42238 | 36228 ft | 384 kts | 243° |
| 2026-05-07 07:19 | 36.59137 | 110.36697 | 36239 ft | 386 kts | 243° |
| 2026-05-07 07:19 | 36.56150 | 110.31149 | 36234 ft | 386 kts | 243° |
| 2026-05-07 07:20 | 36.53153 | 110.25595 | 36245 ft | 387 kts | 243° |
| 2026-05-07 07:20 | 36.50154 | 110.20036 | 36252 ft | 387 kts | 243° |
| 2026-05-07 07:21 | 36.47156 | 110.14489 | 36251 ft | 387 kts | 243° |
| 2026-05-07 07:21 | 36.44153 | 110.08936 | 36254 ft | 388 kts | 243° |
| 2026-05-07 07:22 | 36.41136 | 110.03373 | 36252 ft | 388 kts | 242° |
| 2026-05-07 07:22 | 36.38117 | 109.97805 | 36253 ft | 389 kts | 243° |
| 2026-05-07 07:23 | 36.35090 | 109.92233 | 36253 ft | 390 kts | 242° |
| 2026-05-07 07:23 | 36.32042 | 109.86663 | 36260 ft | 390 kts | 242° |
| 2026-05-07 07:24 | 36.28989 | 109.81091 | 36262 ft | 391 kts | 242° |
| 2026-05-07 07:24 | 36.25947 | 109.75511 | 36258 ft | 391 kts | 242° |
| 2026-05-07 07:25 | 36.21360 | 109.67142 | 36263 ft | 392 kts | 242° |
| 2026-05-07 07:26 | 36.18293 | 109.61552 | 36262 ft | 393 kts | 242° |
| 2026-05-07 07:26 | 36.15216 | 109.55954 | 36265 ft | 394 kts | 241° |
| 2026-05-07 07:27 | 36.12125 | 109.50350 | 36262 ft | 394 kts | 242° |
| 2026-05-07 07:27 | 36.09033 | 109.44737 | 36269 ft | 395 kts | 241° |
| 2026-05-07 07:28 | 36.05929 | 109.39114 | 36261 ft | 396 kts | 241° |
| 2026-05-07 07:28 | 36.02814 | 109.33491 | 36266 ft | 397 kts | 241° |
| 2026-05-07 07:29 | 35.99715 | 109.27902 | 36269 ft | 397 kts | 241° |
| 2026-05-07 07:29 | 35.96431 | 109.22385 | 36269 ft | 404 kts | 233° |
| 2026-05-07 07:30 | 35.91785 | 109.18247 | 36268 ft | 425 kts | 213° |
| 2026-05-07 07:30 | 35.86444 | 109.15100 | 36271 ft | 426 kts | 214° |
| 2026-05-07 07:31 | 35.80903 | 109.12330 | 36272 ft | 433 kts | 208° |
| 2026-05-07 07:31 | 35.75235 | 109.09798 | 36270 ft | 434 kts | 208° |
| 2026-05-07 07:32 | 35.69556 | 109.07282 | 36274 ft | 434 kts | 208° |
| 2026-05-07 07:32 | 35.63869 | 109.04763 | 36285 ft | 434 kts | 208° |
| 2026-05-07 07:33 | 35.58184 | 109.02241 | 36288 ft | 434 kts | 208° |
| 2026-05-07 07:33 | 35.52494 | 108.99717 | 36287 ft | 435 kts | 208° |
| 2026-05-07 07:34 | 35.46805 | 108.97196 | 36294 ft | 435 kts | 208° |
| 2026-05-07 07:34 | 35.41112 | 108.94676 | 36299 ft | 435 kts | 208° |
| 2026-05-07 07:35 | 35.35411 | 108.92171 | 36299 ft | 436 kts | 208° |
| 2026-05-07 07:35 | 35.29706 | 108.89660 | 36303 ft | 436 kts | 208° |
| 2026-05-07 07:36 | 35.23999 | 108.87153 | 36307 ft | 436 kts | 208° |
| 2026-05-07 07:36 | 35.18295 | 108.84646 | 36302 ft | 436 kts | 208° |
| 2026-05-07 07:37 | 35.12588 | 108.82152 | 36303 ft | 436 kts | 208° |
| 2026-05-07 07:37 | 35.06882 | 108.79657 | 36295 ft | 436 kts | 208° |
| 2026-05-07 07:38 | 35.01171 | 108.77158 | 36299 ft | 436 kts | 208° |
| 2026-05-07 07:38 | 34.95503 | 108.74679 | 36308 ft | 436 kts | 208° |
| 2026-05-07 07:39 | 34.89787 | 108.72194 | 36306 ft | 436 kts | 208° |
| 2026-05-07 07:39 | 34.84075 | 108.69716 | 36311 ft | 436 kts | 208° |
| 2026-05-07 07:40 | 34.78371 | 108.67241 | 36310 ft | 435 kts | 208° |
| 2026-05-07 07:40 | 34.72665 | 108.64765 | 36313 ft | 435 kts | 208° |
| 2026-05-07 07:41 | 34.66965 | 108.62291 | 36314 ft | 435 kts | 208° |
| 2026-05-07 07:41 | 34.61266 | 108.59830 | 36315 ft | 435 kts | 208° |
| 2026-05-07 07:42 | 34.55563 | 108.57370 | 36314 ft | 435 kts | 208° |
| 2026-05-07 07:42 | 34.49871 | 108.54913 | 36313 ft | 434 kts | 208° |
| 2026-05-07 07:43 | 34.44176 | 108.52462 | 36314 ft | 434 kts | 208° |
| 2026-05-07 07:43 | 34.38484 | 108.50017 | 36314 ft | 434 kts | 208° |
| 2026-05-07 07:44 | 34.32793 | 108.47574 | 36316 ft | 434 kts | 208° |
| 2026-05-07 07:44 | 34.27109 | 108.45138 | 36317 ft | 433 kts | 207° |
| 2026-05-07 07:45 | 34.21429 | 108.42706 | 36321 ft | 433 kts | 207° |
| 2026-05-07 07:45 | 34.15752 | 108.40269 | 36326 ft | 433 kts | 207° |
| 2026-05-07 07:46 | 34.10115 | 108.37859 | 36325 ft | 433 kts | 207° |
| 2026-05-07 07:46 | 34.04428 | 108.35442 | 36322 ft | 433 kts | 207° |
| 2026-05-07 07:47 | 33.98741 | 108.33023 | 36324 ft | 434 kts | 207° |
| 2026-05-07 07:47 | 33.93057 | 108.30609 | 36322 ft | 433 kts | 208° |
| 2026-05-07 07:48 | 33.87373 | 108.28197 | 36324 ft | 433 kts | 207° |
| 2026-05-07 07:48 | 33.82603 | 108.26171 | 36319 ft | 434 kts | 208° |
| 2026-05-07 07:49 | 33.76908 | 108.23763 | 36318 ft | 434 kts | 207° |
| 2026-05-07 07:49 | 33.71205 | 108.21353 | 36305 ft | 434 kts | 207° |
| 2026-05-07 07:50 | 33.65495 | 108.18945 | 36295 ft | 435 kts | 207° |
| 2026-05-07 07:50 | 33.59778 | 108.16540 | 36280 ft | 435 kts | 207° |
| 2026-05-07 07:51 | 33.54057 | 108.14136 | 36272 ft | 436 kts | 207° |
| 2026-05-07 07:51 | 33.48372 | 108.11742 | 36260 ft | 436 kts | 207° |
| 2026-05-07 07:52 | 33.42699 | 108.09231 | 36247 ft | 430 kts | 213° |
| 2026-05-07 07:52 | 33.37855 | 108.05333 | 36232 ft | 415 kts | 226° |
| 2026-05-07 07:53 | 33.33401 | 108.00920 | 36232 ft | 416 kts | 226° |
| 2026-05-07 07:53 | 33.28933 | 107.96533 | 36227 ft | 416 kts | 226° |
| 2026-05-07 07:54 | 33.24456 | 107.92158 | 36227 ft | 415 kts | 226° |
| 2026-05-07 07:54 | 33.20003 | 107.87774 | 36232 ft | 414 kts | 226° |
| 2026-05-07 07:55 | 33.15570 | 107.83388 | 36233 ft | 414 kts | 226° |
| 2026-05-07 07:55 | 33.11134 | 107.79018 | 36232 ft | 413 kts | 226° |
| 2026-05-07 07:56 | 33.06702 | 107.74669 | 36224 ft | 413 kts | 226° |
| 2026-05-07 07:56 | 33.02270 | 107.70322 | 36210 ft | 413 kts | 226° |
| 2026-05-07 07:57 | 32.97835 | 107.65969 | 36202 ft | 413 kts | 226° |
| 2026-05-07 07:57 | 32.93403 | 107.61621 | 36216 ft | 413 kts | 226° |
| 2026-05-07 07:58 | 32.88968 | 107.57274 | 36216 ft | 413 kts | 226° |
| 2026-05-07 07:58 | 32.84522 | 107.52942 | 36219 ft | 413 kts | 226° |
| 2026-05-07 07:59 | 32.80340 | 107.48353 | 36217 ft | 404 kts | 237° |
| 2026-05-07 07:59 | 32.77055 | 107.42989 | 36215 ft | 401 kts | 239° |
| 2026-05-07 08:00 | 32.73777 | 107.37622 | 36211 ft | 401 kts | 239° |
| 2026-05-07 08:00 | 32.70498 | 107.32256 | 36211 ft | 401 kts | 238° |
| 2026-05-07 08:01 | 32.67215 | 107.26886 | 36208 ft | 402 kts | 239° |
| 2026-05-07 08:01 | 32.63920 | 107.21515 | 36202 ft | 403 kts | 239° |
| 2026-05-07 08:02 | 32.60616 | 107.16139 | 36210 ft | 403 kts | 238° |
| 2026-05-07 08:02 | 32.57312 | 107.10773 | 36213 ft | 402 kts | 238° |
| 2026-05-07 08:03 | 32.54015 | 107.05418 | 36214 ft | 402 kts | 238° |
| 2026-05-07 08:03 | 32.50719 | 107.00067 | 36215 ft | 402 kts | 238° |
| 2026-05-07 08:04 | 32.47428 | 106.94722 | 36203 ft | 402 kts | 238° |
| 2026-05-07 08:04 | 32.44132 | 106.89381 | 36195 ft | 402 kts | 238° |
| 2026-05-07 08:05 | 32.40829 | 106.84043 | 36187 ft | 402 kts | 238° |
| 2026-05-07 08:05 | 32.37520 | 106.78706 | 36181 ft | 403 kts | 238° |
| 2026-05-07 08:06 | 32.34203 | 106.73365 | 36181 ft | 403 kts | 238° |
| 2026-05-07 08:06 | 32.30887 | 106.68029 | 36180 ft | 402 kts | 238° |
| 2026-05-07 08:07 | 32.27582 | 106.62737 | 36176 ft | 403 kts | 237° |
| 2026-05-07 08:07 | 32.24237 | 106.57428 | 36175 ft | 403 kts | 237° |
| 2026-05-07 08:08 | 32.20891 | 106.52117 | 36173 ft | 403 kts | 237° |
| 2026-05-07 08:08 | 32.17548 | 106.46804 | 36166 ft | 403 kts | 237° |
| 2026-05-07 08:09 | 32.14199 | 106.41485 | 36159 ft | 404 kts | 237° |
| 2026-05-07 08:09 | 32.10842 | 106.36164 | 36154 ft | 404 kts | 237° |
| 2026-05-07 08:10 | 32.07476 | 106.30846 | 36150 ft | 405 kts | 237° |
| 2026-05-07 08:10 | 32.04102 | 106.25535 | 36140 ft | 405 kts | 237° |
| 2026-05-07 08:11 | 32.00730 | 106.20210 | 36136 ft | 405 kts | 237° |
| 2026-05-07 08:11 | 31.97353 | 106.14885 | 36126 ft | 406 kts | 237° |
| 2026-05-07 08:12 | 31.93970 | 106.09557 | 36135 ft | 407 kts | 237° |
| 2026-05-07 08:12 | 31.90571 | 106.04217 | 36134 ft | 408 kts | 237° |
| 2026-05-07 08:13 | 31.87166 | 105.98880 | 36128 ft | 408 kts | 237° |
| 2026-05-07 08:13 | 31.83751 | 105.93547 | 36127 ft | 408 kts | 237° |
| 2026-05-07 08:14 | 31.80332 | 105.88203 | 36128 ft | 409 kts | 237° |
| 2026-05-07 08:14 | 31.76912 | 105.82858 | 36133 ft | 409 kts | 237° |
| 2026-05-07 08:15 | 31.73491 | 105.77519 | 36139 ft | 409 kts | 237° |
| 2026-05-07 08:15 | 31.70075 | 105.72179 | 36152 ft | 408 kts | 237° |
| 2026-05-07 08:16 | 31.66665 | 105.66864 | 36157 ft | 407 kts | 237° |
| 2026-05-07 08:16 | 31.63249 | 105.61571 | 36160 ft | 407 kts | 237° |
| 2026-05-07 08:17 | 31.59862 | 105.56321 | 36175 ft | 406 kts | 237° |
| 2026-05-07 08:17 | 31.56432 | 105.51008 | 36167 ft | 405 kts | 237° |
| 2026-05-07 08:18 | 31.53034 | 105.45746 | 36170 ft | 404 kts | 237° |
| 2026-05-07 08:18 | 31.49659 | 105.40533 | 36165 ft | 404 kts | 237° |
| 2026-05-07 08:19 | 31.46269 | 105.35296 | 36165 ft | 403 kts | 237° |
| 2026-05-07 08:19 | 31.42876 | 105.30062 | 36163 ft | 403 kts | 237° |
| 2026-05-07 08:20 | 31.39566 | 105.24784 | 36163 ft | 402 kts | 239° |
| 2026-05-07 08:20 | 31.36398 | 105.19402 | 36155 ft | 401 kts | 239° |
| 2026-05-07 08:21 | 31.33251 | 105.14028 | 36159 ft | 401 kts | 239° |
| 2026-05-07 08:21 | 31.30070 | 105.08676 | 36172 ft | 400 kts | 239° |
| 2026-05-07 08:22 | 31.26873 | 105.03346 | 36172 ft | 400 kts | 239° |
| 2026-05-07 08:22 | 31.23675 | 104.98034 | 36162 ft | 400 kts | 239° |
| 2026-05-07 08:23 | 31.20480 | 104.92723 | 36164 ft | 400 kts | 239° |
| 2026-05-07 08:23 | 31.17285 | 104.87406 | 36163 ft | 400 kts | 239° |
| 2026-05-07 08:24 | 31.14086 | 104.82103 | 36161 ft | 400 kts | 239° |
| 2026-05-07 08:24 | 31.10882 | 104.76798 | 36157 ft | 400 kts | 239° |
| 2026-05-07 08:25 | 31.07685 | 104.71492 | 36155 ft | 400 kts | 239° |
| 2026-05-07 08:25 | 31.04482 | 104.66186 | 36156 ft | 400 kts | 239° |
| 2026-05-07 08:26 | 30.99550 | 104.58379 | 36161 ft | 401 kts | 237° |
| 2026-05-07 08:26 | 30.96207 | 104.53183 | 36159 ft | 401 kts | 237° |
| 2026-05-07 08:27 | 30.92880 | 104.47976 | 36162 ft | 401 kts | 238° |
| 2026-05-07 08:27 | 30.89560 | 104.42757 | 36158 ft | 401 kts | 237° |
| 2026-05-07 08:28 | 30.85454 | 104.38273 | 36154 ft | 415 kts | 218° |
| 2026-05-07 08:28 | 30.80168 | 104.35333 | 36152 ft | 423 kts | 212° |
| 2026-05-07 08:29 | 30.74798 | 104.32533 | 36149 ft | 423 kts | 212° |
| 2026-05-07 08:29 | 30.69421 | 104.29722 | 36147 ft | 423 kts | 212° |
| 2026-05-07 08:30 | 30.64046 | 104.26919 | 36148 ft | 424 kts | 212° |
| 2026-05-07 08:30 | 30.58663 | 104.24123 | 36146 ft | 424 kts | 212° |
| 2026-05-07 08:31 | 30.53323 | 104.21258 | 36145 ft | 423 kts | 212° |
| 2026-05-07 08:31 | 30.47529 | 104.19423 | 36146 ft | 442 kts | 196° |
| 2026-05-07 08:32 | 30.41427 | 104.18507 | 36145 ft | 443 kts | 196° |
| 2026-05-07 08:32 | 30.35315 | 104.17623 | 36143 ft | 443 kts | 196° |
| 2026-05-07 08:33 | 30.30230 | 104.16873 | 36142 ft | 443 kts | 196° |
| 2026-05-07 08:33 | 30.24116 | 104.15956 | 36136 ft | 443 kts | 196° |
| 2026-05-07 08:34 | 30.17993 | 104.15040 | 36135 ft | 444 kts | 196° |
| 2026-05-07 08:34 | 30.10878 | 104.13975 | 36138 ft | 444 kts | 196° |
| 2026-05-07 08:35 | 30.04755 | 104.13059 | 36138 ft | 444 kts | 196° |
| 2026-05-07 08:35 | 29.99621 | 104.12297 | 36129 ft | 444 kts | 196° |
| 2026-05-07 08:36 | 29.93501 | 104.11394 | 36131 ft | 444 kts | 196° |
| 2026-05-07 08:36 | 29.87368 | 104.10487 | 36126 ft | 444 kts | 196° |
| 2026-05-07 08:37 | 29.81235 | 104.09573 | 36123 ft | 445 kts | 196° |
| 2026-05-07 08:37 | 29.75101 | 104.08664 | 36119 ft | 445 kts | 196° |
| 2026-05-07 08:38 | 29.69005 | 104.07765 | 36118 ft | 444 kts | 196° |
| 2026-05-07 08:38 | 29.62830 | 104.06853 | 36113 ft | 444 kts | 196° |
| 2026-05-07 08:39 | 29.56735 | 104.05952 | 36111 ft | 445 kts | 196° |
| 2026-05-07 08:39 | 29.50595 | 104.05047 | 36105 ft | 445 kts | 196° |
| 2026-05-07 08:40 | 29.44446 | 104.04146 | 36111 ft | 446 kts | 196° |
| 2026-05-07 08:40 | 29.38274 | 104.03351 | 36115 ft | 453 kts | 190° |
| 2026-05-07 08:41 | 29.31936 | 104.03421 | 36118 ft | 456 kts | 188° |
| 2026-05-07 08:41 | 29.25595 | 104.03520 | 36118 ft | 456 kts | 188° |
| 2026-05-07 08:42 | 29.19249 | 104.03621 | 36117 ft | 456 kts | 188° |
| 2026-05-07 08:42 | 29.12907 | 104.03712 | 36123 ft | 456 kts | 188° |
| 2026-05-07 08:43 | 29.06553 | 104.03795 | 36123 ft | 457 kts | 188° |
| 2026-05-07 08:43 | 29.00193 | 104.03882 | 36124 ft | 457 kts | 188° |
| 2026-05-07 08:44 | 28.93827 | 104.03972 | 36123 ft | 457 kts | 187° |
| 2026-05-07 08:44 | 28.87462 | 104.04063 | 36125 ft | 457 kts | 188° |
| 2026-05-07 08:45 | 28.81091 | 104.04150 | 36130 ft | 458 kts | 188° |
| 2026-05-07 08:45 | 28.74718 | 104.04235 | 36137 ft | 458 kts | 188° |
| 2026-05-07 08:46 | 28.68337 | 104.04321 | 36133 ft | 459 kts | 188° |
| 2026-05-07 08:46 | 28.62170 | 104.03411 | 36129 ft | 437 kts | 207° |
| 2026-05-07 08:47 | 28.59426 | 104.02027 | 36139 ft | 426 kts | 218° |
| 2026-05-07 08:47 | 28.57040 | 104.00112 | 36137 ft | 415 kts | 228° |
| 2026-05-07 08:47 | 28.53539 | 103.95096 | 36139 ft | 401 kts | 246° |
| 2026-05-07 08:48 | 28.51074 | 103.89432 | 36146 ft | 399 kts | 247° |
| 2026-05-07 08:48 | 28.48590 | 103.83774 | 36154 ft | 401 kts | 247° |
| 2026-05-07 08:49 | 28.46110 | 103.78143 | 36154 ft | 400 kts | 246° |
| 2026-05-07 08:49 | 28.43641 | 103.72508 | 36162 ft | 400 kts | 247° |
| 2026-05-07 08:50 | 28.41158 | 103.66846 | 36161 ft | 398 kts | 247° |
| 2026-05-07 08:50 | 28.38670 | 103.61191 | 36184 ft | 401 kts | 247° |
| 2026-05-07 08:51 | 28.36181 | 103.55510 | 36194 ft | 402 kts | 247° |
| 2026-05-07 08:51 | 28.33681 | 103.49828 | 36197 ft | 402 kts | 247° |
| 2026-05-07 08:52 | 28.31177 | 103.44144 | 36211 ft | 403 kts | 246° |
| 2026-05-07 08:52 | 28.28671 | 103.38451 | 36224 ft | 404 kts | 246° |
| 2026-05-07 08:53 | 28.26153 | 103.32765 | 36224 ft | 403 kts | 246° |
| 2026-05-07 08:53 | 28.23642 | 103.27095 | 36204 ft | 402 kts | 247° |
| 2026-05-07 08:54 | 28.21130 | 103.21419 | 36220 ft | 404 kts | 246° |
| 2026-05-07 08:54 | 28.18605 | 103.15731 | 36233 ft | 405 kts | 246° |
| 2026-05-07 08:55 | 28.16073 | 103.10031 | 36235 ft | 405 kts | 246° |
| 2026-05-07 08:55 | 28.13545 | 103.04338 | 36235 ft | 405 kts | 246° |
| 2026-05-07 08:56 | 28.11007 | 102.98647 | 36211 ft | 404 kts | 246° |
| 2026-05-07 08:56 | 28.08469 | 102.92969 | 36217 ft | 404 kts | 246° |
| 2026-05-07 08:57 | 28.05926 | 102.87277 | 36238 ft | 405 kts | 246° |
| 2026-05-07 08:57 | 28.03388 | 102.81591 | 36222 ft | 404 kts | 246° |
| 2026-05-07 08:58 | 28.00836 | 102.75917 | 36222 ft | 405 kts | 246° |
| 2026-05-07 08:58 | 27.98282 | 102.70227 | 36221 ft | 406 kts | 245° |
| 2026-05-07 08:59 | 27.95727 | 102.64531 | 36218 ft | 407 kts | 246° |
| 2026-05-07 08:59 | 27.93178 | 102.58873 | 36216 ft | 406 kts | 245° |
| 2026-05-07 09:00 | 27.90614 | 102.53177 | 36223 ft | 407 kts | 246° |
| 2026-05-07 09:00 | 27.88043 | 102.47477 | 36207 ft | 407 kts | 245° |
| 2026-05-07 09:01 | 27.85468 | 102.41775 | 36204 ft | 407 kts | 246° |
| 2026-05-07 09:01 | 27.82893 | 102.36084 | 36189 ft | 407 kts | 245° |
| 2026-05-07 09:02 | 27.80317 | 102.30394 | 36180 ft | 407 kts | 245° |
| 2026-05-07 09:02 | 27.77736 | 102.24709 | 36176 ft | 407 kts | 245° |
| 2026-05-07 09:03 | 27.75148 | 102.19023 | 36174 ft | 407 kts | 245° |
| 2026-05-07 09:03 | 27.71955 | 102.13719 | 36168 ft | 413 kts | 234° |
| 2026-05-07 09:04 | 27.68274 | 102.08751 | 36170 ft | 412 kts | 234° |
| 2026-05-07 09:04 | 27.64603 | 102.03787 | 36171 ft | 412 kts | 234° |
| 2026-05-07 09:05 | 27.60925 | 101.98818 | 36169 ft | 413 kts | 234° |
| 2026-05-07 09:05 | 27.57244 | 101.93848 | 36159 ft | 413 kts | 234° |
| 2026-05-07 09:06 | 27.53550 | 101.88877 | 36169 ft | 415 kts | 234° |
| 2026-05-07 09:06 | 27.49850 | 101.83896 | 36170 ft | 414 kts | 234° |
| 2026-05-07 09:07 | 27.46144 | 101.78915 | 36163 ft | 415 kts | 234° |
| 2026-05-07 09:07 | 27.42438 | 101.73944 | 36166 ft | 415 kts | 234° |
| 2026-05-07 09:08 | 27.38729 | 101.68972 | 36165 ft | 415 kts | 234° |
| 2026-05-07 09:08 | 27.35020 | 101.64003 | 36162 ft | 414 kts | 234° |
| 2026-05-07 09:09 | 27.31316 | 101.59043 | 36142 ft | 414 kts | 233° |
| 2026-05-07 09:09 | 27.27643 | 101.54129 | 36115 ft | 412 kts | 234° |
| 2026-05-07 09:10 | 27.23920 | 101.49150 | 36118 ft | 414 kts | 233° |
| 2026-05-07 09:10 | 27.19936 | 101.44500 | 36113 ft | 422 kts | 223° |
| 2026-05-07 09:11 | 27.15336 | 101.40422 | 36112 ft | 421 kts | 223° |
| 2026-05-07 09:11 | 27.10746 | 101.36350 | 36082 ft | 419 kts | 224° |
| 2026-05-07 09:12 | 27.06171 | 101.32273 | 36099 ft | 421 kts | 223° |
| 2026-05-07 09:12 | 27.01584 | 101.28201 | 36103 ft | 420 kts | 223° |
| 2026-05-07 09:13 | 26.96998 | 101.24136 | 36095 ft | 420 kts | 223° |
| 2026-05-07 09:13 | 26.92419 | 101.20070 | 36078 ft | 420 kts | 224° |
| 2026-05-07 09:14 | 26.87833 | 101.16008 | 36077 ft | 421 kts | 223° |
| 2026-05-07 09:14 | 26.83233 | 101.11948 | 35868 ft | 424 kts | 223° |
| 2026-05-07 09:15 | 26.80910 | 101.09896 | 35342 ft | 426 kts | 223° |
| 2026-05-07 09:15 | 26.78580 | 101.07837 | 34827 ft | 427 kts | 223° |
| 2026-05-07 09:15 | 26.76250 | 101.05780 | 34321 ft | 426 kts | 223° |
| 2026-05-07 09:15 | 26.73921 | 101.03727 | 33810 ft | 426 kts | 223° |
| 2026-05-07 09:16 | 26.71594 | 101.01676 | 33245 ft | 426 kts | 223° |
| 2026-05-07 09:16 | 26.69262 | 100.99621 | 32685 ft | 428 kts | 222° |
| 2026-05-07 09:16 | 26.66922 | 100.97558 | 32141 ft | 429 kts | 222° |
| 2026-05-07 09:16 | 26.64578 | 100.95492 | 31612 ft | 430 kts | 222° |
| 2026-05-07 09:17 | 26.62222 | 100.93416 | 31089 ft | 432 kts | 222° |
| 2026-05-07 09:17 | 26.59852 | 100.91331 | 30571 ft | 434 kts | 222° |
| 2026-05-07 09:17 | 26.57480 | 100.89245 | 30069 ft | 435 kts | 221° |
| 2026-05-07 09:17 | 26.55102 | 100.87154 | 29482 ft | 436 kts | 221° |
| 2026-05-07 09:18 | 26.52712 | 100.85055 | 28903 ft | 438 kts | 221° |
| 2026-05-07 09:18 | 26.50311 | 100.82947 | 28325 ft | 440 kts | 221° |
| 2026-05-07 09:18 | 26.47894 | 100.80828 | 27767 ft | 443 kts | 221° |
| 2026-05-07 09:18 | 26.45465 | 100.78702 | 27216 ft | 445 kts | 221° |
| 2026-05-07 09:19 | 26.43023 | 100.76566 | 26674 ft | 447 kts | 221° |
| 2026-05-07 09:19 | 26.40568 | 100.74423 | 26146 ft | 449 kts | 221° |
| 2026-05-07 09:19 | 26.38103 | 100.72268 | 25614 ft | 451 kts | 221° |
| 2026-05-07 09:19 | 26.35625 | 100.70099 | 25113 ft | 454 kts | 220° |
| 2026-05-07 09:20 | 26.33978 | 100.68655 | 24776 ft | 456 kts | 220° |
| 2026-05-07 09:20 | 26.30632 | 100.65731 | 24120 ft | 457 kts | 220° |
| 2026-05-07 09:20 | 26.28133 | 100.63549 | 23634 ft | 456 kts | 220° |
| 2026-05-07 09:20 | 26.25646 | 100.61378 | 23092 ft | 454 kts | 220° |
| 2026-05-07 09:21 | 26.24003 | 100.59946 | 22723 ft | 452 kts | 220° |
| 2026-05-07 09:21 | 26.20707 | 100.57073 | 21962 ft | 445 kts | 220° |
| 2026-05-07 09:21 | 26.18479 | 100.54757 | 21408 ft | 432 kts | 232° |
| 2026-05-07 09:21 | 26.17396 | 100.52926 | 21061 ft | 425 kts | 243° |
| 2026-05-07 09:22 | 26.16438 | 100.49864 | 20529 ft | 417 kts | 259° |
| 2026-05-07 09:22 | 26.16327 | 100.46666 | 20007 ft | 412 kts | 275° |
| 2026-05-07 09:22 | 26.16981 | 100.43579 | 19481 ft | 409 kts | 285° |
| 2026-05-07 09:22 | 26.17816 | 100.40576 | 18926 ft | 403 kts | 285° |
| 2026-05-07 09:23 | 26.18645 | 100.37606 | 18436 ft | 399 kts | 286° |
| 2026-05-07 09:23 | 26.19459 | 100.34685 | 18088 ft | 391 kts | 287° |
| 2026-05-07 09:23 | 26.20255 | 100.31819 | 17714 ft | 385 kts | 286° |
| 2026-05-07 09:23 | 26.21035 | 100.28992 | 17338 ft | 378 kts | 286° |
| 2026-05-07 09:24 | 26.21798 | 100.26220 | 16964 ft | 372 kts | 286° |
| 2026-05-07 09:24 | 26.22552 | 100.23491 | 16596 ft | 366 kts | 286° |
| 2026-05-07 09:24 | 26.23287 | 100.20826 | 16197 ft | 353 kts | 285° |
| 2026-05-07 09:24 | 26.23991 | 100.18260 | 15818 ft | 340 kts | 285° |
| 2026-05-07 09:25 | 26.24669 | 100.15787 | 15446 ft | 328 kts | 285° |
| 2026-05-07 09:25 | 26.25377 | 100.13419 | 15072 ft | 318 kts | 293° |
| 2026-05-07 09:25 | 26.26759 | 100.11534 | 14692 ft | 317 kts | 323° |
| 2026-05-07 09:25 | 26.28798 | 100.10668 | 14307 ft | 316 kts | 353° |
| 2026-05-07 09:26 | 26.30975 | 100.10922 | 13903 ft | 316 kts | 14° |
| 2026-05-07 09:26 | 26.33034 | 100.11746 | 13466 ft | 314 kts | 22° |
| 2026-05-07 09:26 | 26.35016 | 100.12732 | 13004 ft | 309 kts | 22° |
| 2026-05-07 09:26 | 26.36924 | 100.13766 | 12564 ft | 302 kts | 26° |
| 2026-05-07 09:27 | 26.38779 | 100.14666 | 12360 ft | 286 kts | 16° |
| 2026-05-07 09:27 | 26.40640 | 100.15301 | 12112 ft | 274 kts | 14° |
| 2026-05-07 09:27 | 26.44190 | 100.16470 | 11462 ft | 260 kts | 15° |
| 2026-05-07 09:28 | 26.45910 | 100.17056 | 11125 ft | 256 kts | 15° |
| 2026-05-07 09:28 | 26.47595 | 100.17629 | 10831 ft | 248 kts | 15° |
| 2026-05-07 09:28 | 26.49215 | 100.18180 | 10511 ft | 238 kts | 15° |
| 2026-05-07 09:28 | 26.50765 | 100.18707 | 10223 ft | 229 kts | 15° |
| 2026-05-07 09:29 | 26.52255 | 100.19213 | 9948 ft | 218 kts | 17° |
| 2026-05-07 09:29 | 26.53645 | 100.19686 | 9691 ft | 199 kts | 16° |
| 2026-05-07 09:29 | 26.54910 | 100.20116 | 9435 ft | 182 kts | 17° |
| 2026-05-07 09:29 | 26.56081 | 100.20514 | 9222 ft | 170 kts | 16° |
| 2026-05-07 09:30 | 26.57194 | 100.20893 | 9060 ft | 166 kts | 16° |
| 2026-05-07 09:30 | 26.58297 | 100.21268 | 8903 ft | 165 kts | 16° |
| 2026-05-07 09:30 | 26.59391 | 100.21641 | 8747 ft | 164 kts | 17° |
| 2026-05-07 09:30 | 26.60481 | 100.22012 | 8550 ft | 164 kts | 18° |
| 2026-05-07 09:31 | 26.61565 | 100.22381 | 8325 ft | 163 kts | 18° |
| 2026-05-07 09:31 | 26.62651 | 100.22751 | 8080 ft | 162 kts | 17° |
| 2026-05-07 09:31 | 26.63721 | 100.23117 | 7830 ft | 160 kts | 16° |
| 2026-05-07 09:31 | 26.64780 | 100.23479 | 7586 ft | 160 kts | 17° |
| 2026-05-07 09:32 | 26.65847 | 100.23845 | 7352 ft | 160 kts | 17° |
| 2026-05-07 09:32 | 26.66907 | 100.24207 | 7229 ft | 156 kts | 16° |
| 2026-05-07 09:32 | 26.67772 | 100.24499 | 7217 ft | 91 kts | 17° |
| 2026-05-07 09:32 | 26.68146 | 100.24626 | 7218 ft | 43 kts | 17° |
| 2026-05-07 09:33 | 26.68421 | 100.24719 | 7218 ft | 33 kts | 17° |
| 2026-05-07 09:33 | 26.68535 | 100.24763 | 7218 ft | 16 kts | 38° |
| 2026-05-07 09:33 | 26.68526 | 100.24871 | 7217 ft | 13 kts | 107° |
| 2026-05-07 09:33 | 26.68471 | 100.24920 | 7218 ft | 12 kts | 195° |
| 2026-05-07 09:34 | 26.68378 | 100.24889 | 7218 ft | 16 kts | 197° |
| 2026-05-07 09:34 | 26.68264 | 100.24850 | 7217 ft | 18 kts | 197° |
| 2026-05-07 09:34 | 26.68143 | 100.24809 | 7218 ft | 19 kts | 197° |
| 2026-05-07 09:34 | 26.68020 | 100.24767 | 7216 ft | 18 kts | 197° |
| 2026-05-07 09:35 | 26.67897 | 100.24725 | 7218 ft | 19 kts | 197° |
| 2026-05-07 09:35 | 26.67771 | 100.24682 | 7218 ft | 19 kts | 197° |
| 2026-05-07 09:35 | 26.67644 | 100.24639 | 7216 ft | 18 kts | 197° |
| 2026-05-07 09:35 | 26.67525 | 100.24599 | 7218 ft | 18 kts | 197° |
| 2026-05-07 09:36 | 26.67403 | 100.24557 | 7216 ft | 18 kts | 197° |
| 2026-05-07 09:36 | 26.67279 | 100.24515 | 7217 ft | 19 kts | 197° |
| 2026-05-07 09:36 | 26.67153 | 100.24472 | 7216 ft | 19 kts | 197° |
| 2026-05-07 09:36 | 26.67089 | 100.24451 | 7217 ft | 8 kts | 195° |
| 2026-05-07 09:37 | 26.67047 | 100.24481 | 7217 ft | 8 kts | 100° |
| 2026-05-07 09:37 | 26.67031 | 100.24547 | 7216 ft | 9 kts | 107° |
| 2026-05-07 09:37 | 26.66993 | 100.24582 | 7216 ft | 4 kts | 192° |
| 2026-05-07 09:37 | 26.66972 | 100.24576 | 7216 ft | 3 kts | 196° |
| 2026-05-07 09:38 | 26.66965 | 100.24573 | 7219 ft | 0 kts | 196° |